Time;durP1;ratioP1;P1;durP2;ratioP2;P2;SDS_P1;SDS_P2;PMS_P1;PMS_P2;Temp;Humidity;BMP_temperature;BMP_pressure;BME280_temperature;BME280_humidity;BME280_pressure;Samples;Min_cycle;Max_cycle;Signal;HPM_P1;HPM_P2
2023/12/10 00:01:31;;;;;;;49.78;25.73;;;;;;;2.49;72.30;95138.63;5090924;28;20131;-81
2023/12/10 00:03:57;;;;;;;54.85;26.50;;;;;;;2.73;72.34;95192.66;5091394;28;20520;-81
2023/12/10 00:06:23;;;;;;;53.80;25.17;;;;;;;2.50;72.28;95148.09;5106743;28;20032;-80
2023/12/10 00:08:49;;;;;;;47.45;24.55;;;;;;;2.77;72.45;95198.22;5106824;28;20028;-80
2023/12/10 00:11:15;;;;;;;44.58;22.27;;;;;;;2.31;72.69;95123.78;5074426;28;20028;-81
2023/12/10 00:13:40;;;;;;;48.42;24.15;;;;;;;2.78;72.59;95189.38;5092968;28;20090;-80
2023/12/10 00:16:06;;;;;;;54.63;25.35;;;;;;;2.68;72.82;95184.66;5071664;28;20033;-80
2023/12/10 00:18:32;;;;;;;49.22;24.75;;;;;;;2.80;72.68;95193.38;5074225;28;20032;-81
2023/12/10 00:20:57;;;;;;;48.65;22.52;;;;;;;2.65;72.50;95158.94;5104260;28;20032;-80
2023/12/10 00:23:23;;;;;;;43.00;22.30;;;;;;;2.40;72.24;95134.75;5094504;28;20061;-80
2023/12/10 00:25:48;;;;;;;44.00;21.67;;;;;;;2.76;72.15;95201.88;5094465;28;20063;-80
2023/12/10 00:28:14;;;;;;;48.05;22.80;;;;;;;2.57;72.68;95175.78;5092526;28;20569;-81
2023/12/10 00:30:41;;;;;;;41.28;20.85;;;;;;;2.71;72.90;95203.34;5090817;28;20032;-81
2023/12/10 00:33:08;;;;;;;42.95;20.73;;;;;;;2.56;72.98;95189.88;5087277;28;20102;-80
2023/12/10 00:35:34;;;;;;;41.05;20.38;;;;;;;2.54;73.11;95181.44;5075552;28;20039;-80
2023/12/10 00:37:59;;;;;;;46.70;20.08;;;;;;;2.43;72.86;95158.66;5076801;28;20350;-80
2023/12/10 00:40:25;;;;;;;36.78;19.23;;;;;;;2.46;72.89;95160.81;5090535;28;20024;-81
2023/12/10 00:42:51;;;;;;;41.22;21.10;;;;;;;2.13;72.44;95113.38;5090063;28;20089;-81
2023/12/10 00:45:16;;;;;;;40.03;19.60;;;;;;;2.54;73.17;95185.88;5092671;28;20028;-81
2023/12/10 00:47:42;;;;;;;46.08;21.48;;;;;;;2.63;72.92;95182.72;5093808;28;20046;-81
2023/12/10 00:50:08;;;;;;;45.13;22.70;;;;;;;2.59;73.44;95183.41;5077411;28;20084;-81
2023/12/10 00:52:35;;;;;;;46.35;22.48;;;;;;;2.42;74.08;95172.75;5091759;28;20093;-80
2023/12/10 00:55:00;;;;;;;40.88;21.50;;;;;;;2.32;73.37;95147.13;5085741;28;20180;-81
2023/12/10 00:57:29;;;;;;;44.83;22.88;;;;;;;2.55;73.28;95179.63;5106375;28;20382;-81
2023/12/10 00:59:55;;;;;;;56.08;22.00;;;;;;;2.33;73.31;95147.91;5089883;28;20032;-81
2023/12/10 01:02:20;;;;;;;46.13;23.25;;;;;;;2.23;72.91;95118.88;5111045;28;20058;-80
2023/12/10 01:04:46;;;;;;;51.13;24.60;;;;;;;2.56;72.84;95178.59;5095346;28;20552;-80
2023/12/10 01:07:11;;;;;;;47.42;23.00;;;;;;;2.17;72.73;95090.97;5094602;28;20039;-81
2023/12/10 01:09:38;;;;;;;48.45;23.15;;;;;;;2.39;73.37;95154.88;5103625;28;20378;-81
2023/12/10 01:12:06;;;;;;;49.55;22.65;;;;;;;2.56;73.32;95165.53;5093339;28;20085;-81
2023/12/10 01:14:31;;;;;;;52.72;22.30;;;;;;;2.39;73.44;95138.38;5090002;28;20122;-81
2023/12/10 01:16:57;;;;;;;44.67;22.02;;;;;;;2.57;73.21;95160.06;5074136;28;20123;-81
2023/12/10 01:19:22;;;;;;;48.63;23.05;;;;;;;2.58;72.98;95153.00;5072838;28;20035;-81
2023/12/10 01:21:49;;;;;;;53.15;22.77;;;;;;;2.75;73.14;95171.50;5084798;28;20031;-81
2023/12/10 01:24:20;;;;;;;48.30;21.35;;;;;;;2.57;72.80;95130.47;5097982;28;20112;-81
2023/12/10 01:26:45;;;;;;;45.35;21.90;;;;;;;2.53;72.79;95126.69;5091965;28;20496;-81
2023/12/10 01:29:11;;;;;;;43.45;21.13;;;;;;;2.51;72.44;95126.94;5100687;28;20043;-81
2023/12/10 01:31:37;;;;;;;44.00;20.92;;;;;;;2.77;72.64;95161.56;5092366;28;20035;-81
2023/12/10 01:34:03;;;;;;;40.60;21.27;;;;;;;2.58;72.65;95125.00;5102448;28;20043;-81
2023/12/10 01:36:29;;;;;;;43.35;21.23;;;;;;;2.62;72.52;95122.72;5069862;28;20056;-81
2023/12/10 01:38:56;;;;;;;47.40;20.30;;;;;;;2.76;72.60;95150.28;5069776;28;20033;-80
2023/12/10 01:41:23;;;;;;;43.15;21.17;;;;;;;2.68;72.95;95143.56;5072485;28;20100;-80
2023/12/10 01:43:49;;;;;;;40.65;20.70;;;;;;;2.57;72.72;95115.56;5053263;28;20037;-81
2023/12/10 01:46:16;;;;;;;43.88;20.25;;;;;;;2.52;72.96;95115.41;5071879;28;20410;-81
2023/12/10 01:48:43;;;;;;;40.85;20.13;;;;;;;2.53;73.13;95134.53;5069328;28;20032;-81
2023/12/10 01:51:09;;;;;;;38.50;18.83;;;;;;;2.23;72.89;95069.16;5088650;28;20035;-81
2023/12/10 01:53:37;;;;;;;42.67;20.42;;;;;;;2.40;72.88;95113.81;5069231;28;20032;-80
2023/12/10 01:56:04;;;;;;;44.53;20.92;;;;;;;2.45;73.05;95106.88;5092510;28;20032;-80
2023/12/10 01:58:30;;;;;;;43.38;20.65;;;;;;;2.30;73.25;95117.75;5098543;28;20112;-78
2023/12/10 02:00:56;;;;;;;41.10;20.90;;;;;;;2.19;73.77;95102.81;5078802;28;20060;-78
2023/12/10 02:03:22;;;;;;;39.80;19.65;;;;;;;2.02;73.67;95085.34;5082032;28;20043;-78
2023/12/10 02:05:47;;;;;;;40.92;19.88;;;;;;;2.37;73.34;95130.75;5108958;28;20039;-78
2023/12/10 02:08:13;;;;;;;39.70;20.33;;;;;;;2.45;73.38;95153.19;5078850;28;20051;-80
2023/12/10 02:10:40;;;;;;;40.55;19.27;;;;;;;2.59;73.77;95154.59;5108062;28;20035;-78
2023/12/10 02:13:07;;;;;;;38.72;19.17;;;;;;;2.64;73.49;95154.72;5099256;28;20048;-78
2023/12/10 02:15:33;;;;;;;37.95;19.08;;;;;;;2.54;73.11;95146.59;5101038;28;20040;-78
2023/12/10 02:17:58;;;;;;;35.72;19.60;;;;;;;2.09;73.36;95086.06;5088797;28;20467;-78
2023/12/10 02:20:24;;;;;;;40.05;19.63;;;;;;;2.44;72.87;95122.81;5110155;28;20650;-78
2023/12/10 02:22:55;;;;;;;37.08;19.42;;;;;;;2.56;72.94;95141.97;5072838;28;20076;-78
2023/12/10 02:25:28;;;;;;;42.67;19.75;;;;;;;2.48;72.86;95129.19;5089244;28;20044;-78
2023/12/10 02:27:54;;;;;;;42.95;20.73;;;;;;;2.13;72.95;95063.69;5068509;28;20085;-78
2023/12/10 02:30:20;;;;;;;38.50;19.70;;;;;;;2.14;72.73;95068.66;5089331;28;20036;-78
2023/12/10 02:32:45;;;;;;;41.40;20.77;;;;;;;2.52;72.37;95125.09;5068632;28;20521;-78
2023/12/10 02:35:11;;;;;;;38.97;19.55;;;;;;;2.28;72.98;95071.91;5071219;28;20111;-78
2023/12/10 02:37:36;;;;;;;44.35;20.55;;;;;;;2.31;72.46;95074.06;5112259;28;20413;-78
2023/12/10 02:40:02;;;;;;;42.75;20.58;;;;;;;2.61;72.96;95118.50;5112995;28;20788;-78
2023/12/10 02:42:28;;;;;;;37.40;18.73;;;;;;;2.47;72.61;95115.31;5079293;28;20108;-79
2023/12/10 02:44:53;;;;;;;40.13;19.67;;;;;;;2.32;73.16;95105.25;5092342;28;20111;-77
2023/12/10 02:47:19;;;;;;;34.28;18.55;;;;;;;0.56;73.14;94835.63;5113153;28;20028;-78
2023/12/10 02:49:44;;;;;;;37.65;19.58;;;;;;;2.02;73.24;95067.03;5095709;28;20035;-78
2023/12/10 02:52:10;;;;;;;40.90;20.60;;;;;;;2.31;74.13;95108.09;5093366;28;20520;-78
2023/12/10 02:54:36;;;;;;;42.95;21.92;;;;;;;2.04;73.92;95054.56;5107609;28;20114;-78
2023/12/10 02:57:01;;;;;;;42.70;20.77;;;;;;;2.45;74.00;95137.47;5092410;28;20043;-78
2023/12/10 02:59:27;;;;;;;45.10;21.83;;;;;;;2.21;74.22;95121.69;5113709;28;20102;-78
2023/12/10 03:01:52;;;;;;;48.05;20.15;;;;;;;2.16;73.87;95105.88;5091916;28;20040;-78
2023/12/10 03:04:18;;;;;;;42.08;19.52;;;;;;;2.36;73.74;95113.47;5112376;28;20036;-78
2023/12/10 03:06:43;;;;;;;36.72;19.50;;;;;;;2.47;73.58;95120.53;5090784;28;20127;-78
2023/12/10 03:09:09;;;;;;;44.42;19.42;;;;;;;2.56;73.47;95132.28;5095201;28;20085;-78
2023/12/10 03:11:34;;;;;;;39.13;19.95;;;;;;;2.05;73.18;95030.00;5079182;28;20381;-78
2023/12/10 03:14:00;;;;;;;43.53;20.88;;;;;;;2.38;72.99;95089.66;5075143;28;20041;-78
2023/12/10 03:16:25;;;;;;;40.28;20.52;;;;;;;2.07;73.31;95022.69;5091527;28;20032;-78
2023/12/10 03:18:51;;;;;;;43.60;21.20;;;;;;;2.28;73.59;95083.19;5072151;28;20032;-78
2023/12/10 03:21:17;;;;;;;46.38;22.90;;;;;;;1.92;73.08;95023.13;5075510;28;20557;-78
2023/12/10 03:23:42;;;;;;;45.83;21.73;;;;;;;2.42;73.35;95115.19;5104017;28;20089;-78
2023/12/10 03:26:08;;;;;;;44.55;23.17;;;;;;;2.09;74.22;95075.59;5094631;28;20078;-78
2023/12/10 03:28:33;;;;;;;51.33;23.70;;;;;;;2.20;74.37;95086.13;5084196;28;20050;-79
2023/12/10 03:31:00;;;;;;;47.10;23.60;;;;;;;2.21;75.03;95113.06;5094065;28;20036;-78
2023/12/10 03:33:25;;;;;;;49.65;23.63;;;;;;;2.12;74.66;95096.91;5076387;28;20156;-78
2023/12/10 03:35:51;;;;;;;55.88;23.67;;;;;;;2.27;74.83;95106.94;5087189;28;20036;-78
2023/12/10 03:38:16;;;;;;;51.08;23.60;;;;;;;1.89;74.88;95061.00;5114747;28;20036;-78
2023/12/10 03:40:42;;;;;;;54.28;24.38;;;;;;;2.30;74.70;95127.41;5078749;28;20036;-78
2023/12/10 03:43:07;;;;;;;48.60;22.63;;;;;;;2.04;74.82;95089.34;5074595;28;20037;-78
2023/12/10 03:45:33;;;;;;;52.05;24.38;;;;;;;1.88;74.72;95053.38;5089832;28;20036;-78
2023/12/10 03:47:58;;;;;;;51.00;22.80;;;;;;;2.15;75.16;95101.66;5071229;28;20032;-78
2023/12/10 03:50:24;;;;;;;50.50;23.85;;;;;;;2.10;74.96;95085.84;5080317;28;20046;-78
2023/12/10 03:52:50;;;;;;;48.28;23.05;;;;;;;2.04;75.24;95078.91;5113959;28;20031;-78
2023/12/10 03:55:17;;;;;;;45.13;22.80;;;;;;;2.27;74.74;95112.19;5102121;28;20114;-79
2023/12/10 03:57:42;;;;;;;43.33;21.85;;;;;;;1.88;74.87;95055.97;5095995;28;20667;-78
2023/12/10 04:00:09;;;;;;;46.42;20.95;;;;;;;2.24;75.00;95126.50;5114125;28;20039;-77
2023/12/10 04:02:35;;;;;;;44.53;21.05;;;;;;;1.75;74.70;95040.47;5095912;28;20043;-78
2023/12/10 04:05:01;;;;;;;37.47;18.10;;;;;;;2.20;75.19;95122.75;5083087;28;20109;-78
2023/12/10 04:07:26;;;;;;;37.63;18.48;;;;;;;1.81;75.22;95057.88;5071874;28;20579;-78
2023/12/10 04:09:52;;;;;;;38.30;18.73;;;;;;;2.12;75.83;95120.44;5071713;28;20036;-78
2023/12/10 04:12:17;;;;;;;40.15;19.05;;;;;;;1.81;75.53;95061.31;5090717;28;20117;-78
2023/12/10 04:14:47;;;;;;;38.47;17.25;;;;;;;2.16;75.67;95116.34;5113495;28;20039;-78
2023/12/10 04:17:12;;;;;;;31.13;15.63;;;;;;;2.23;75.79;95122.28;5092950;28;20085;-81
2023/12/10 04:19:38;;;;;;;37.30;16.70;;;;;;;2.17;75.40;95110.09;5087645;28;20063;-80
2023/12/10 04:22:03;;;;;;;39.65;17.90;;;;;;;1.96;75.65;95094.09;5077294;28;20047;-80
2023/12/10 04:24:29;;;;;;;34.45;16.75;;;;;;;1.79;76.31;95073.78;5096646;28;20035;-80
2023/12/10 04:26:54;;;;;;;35.08;16.23;;;;;;;1.47;75.87;95041.81;5074172;28;20075;-81
2023/12/10 04:29:20;;;;;;;35.38;15.60;;;;;;;1.84;76.18;95088.81;5092349;28;20127;-81
2023/12/10 04:31:46;;;;;;;32.45;16.85;;;;;;;1.54;76.34;95036.50;5112445;28;20394;-81
2023/12/10 04:34:12;;;;;;;38.75;17.27;;;;;;;2.06;76.12;95128.38;5112307;28;20039;-81
2023/12/10 04:36:37;;;;;;;37.05;16.67;;;;;;;1.76;76.25;95076.03;5112901;28;20474;-81
2023/12/10 04:39:03;;;;;;;36.05;15.90;;;;;;;1.89;76.39;95091.56;5091047;28;20043;-81
2023/12/10 04:41:28;;;;;;;40.08;16.88;;;;;;;2.04;76.10;95117.34;5083770;28;20202;-81
2023/12/10 04:43:54;;;;;;;32.28;16.20;;;;;;;2.01;75.88;95110.72;5084462;28;20063;-81
2023/12/10 04:46:20;;;;;;;33.28;16.60;;;;;;;1.76;76.39;95068.19;5112141;28;20034;-80
2023/12/10 04:48:45;;;;;;;36.55;16.77;;;;;;;1.83;76.81;95097.69;5074809;28;20036;-81
2023/12/10 04:51:11;;;;;;;34.20;15.52;;;;;;;1.84;76.69;95091.41;5078892;28;20041;-81
2023/12/10 04:53:37;;;;;;;38.80;17.35;;;;;;;1.69;76.48;95077.94;5091957;28;20039;-80
2023/12/10 04:56:03;;;;;;;32.88;16.85;;;;;;;1.14;76.74;94979.50;5093073;28;20036;-80
2023/12/10 04:58:29;;;;;;;34.97;16.95;;;;;;;1.74;76.20;95068.44;5103360;28;20039;-81
2023/12/10 05:00:55;;;;;;;36.38;16.40;;;;;;;1.58;76.72;95052.56;5111068;28;20035;-81
2023/12/10 05:03:20;;;;;;;31.58;16.40;;;;;;;1.77;76.64;95085.47;5113446;28;20028;-81
2023/12/10 05:05:46;;;;;;;36.42;17.67;;;;;;;1.74;76.75;95073.66;5094723;28;20027;-81
2023/12/10 05:08:11;;;;;;;33.42;17.20;;;;;;;2.11;76.42;95128.50;5114449;28;20032;-81
2023/12/10 05:10:37;;;;;;;41.80;18.10;;;;;;;1.96;76.52;95097.50;5076986;28;20032;-81
2023/12/10 05:13:03;;;;;;;33.38;16.05;;;;;;;2.05;76.47;95111.88;5111929;28;20333;-80
2023/12/10 05:15:28;;;;;;;35.92;16.85;;;;;;;1.32;76.56;95001.41;5074734;28;20032;-80
2023/12/10 05:17:54;;;;;;;36.63;16.98;;;;;;;1.65;77.06;95059.31;5069196;28;20028;-81
2023/12/10 05:20:19;;;;;;;37.45;17.60;;;;;;;1.59;76.73;95044.50;5085696;28;20036;-81
2023/12/10 05:22:45;;;;;;;38.15;16.45;;;;;;;1.79;76.71;95065.16;5103368;28;20094;-80
2023/12/10 05:25:11;;;;;;;36.05;16.95;;;;;;;2.12;76.69;95130.91;5071124;28;20040;-81
2023/12/10 05:27:37;;;;;;;38.95;15.60;;;;;;;1.44;76.24;95033.63;5091390;28;20485;-79
2023/12/10 05:30:02;;;;;;;32.83;17.33;;;;;;;1.75;76.65;95106.63;5113148;28;20062;-78
2023/12/10 05:32:28;;;;;;;36.35;17.63;;;;;;;1.86;77.20;95112.94;5082523;28;20573;-79
2023/12/10 05:34:53;;;;;;;37.38;18.08;;;;;;;1.69;76.89;95083.97;5090257;28;20028;-78
2023/12/10 05:37:19;;;;;;;38.38;18.38;;;;;;;2.05;77.03;95130.19;5101028;28;20486;-78
2023/12/10 05:39:45;;;;;;;37.78;17.52;;;;;;;1.83;76.75;95097.69;5076226;28;20028;-78
2023/12/10 05:42:10;;;;;;;34.28;16.20;;;;;;;1.54;77.23;95060.81;5089664;28;20031;-78
2023/12/10 05:44:36;;;;;;;35.50;17.25;;;;;;;2.00;77.18;95131.84;5109895;28;20040;-78
2023/12/10 05:47:02;;;;;;;35.47;17.33;;;;;;;2.05;76.99;95134.63;5070753;28;20149;-79
2023/12/10 05:49:28;;;;;;;40.78;17.58;;;;;;;1.38;76.53;95039.72;5092306;28;20387;-78
2023/12/10 05:51:54;;;;;;;41.47;17.90;;;;;;;1.81;76.74;95107.56;5080459;28;20028;-78
2023/12/10 05:54:19;;;;;;;43.25;19.13;;;;;;;1.78;77.04;95113.22;5093898;28;20123;-78
2023/12/10 05:56:45;;;;;;;37.85;18.33;;;;;;;1.56;77.22;95071.06;5099557;28;20107;-78
2023/12/10 05:59:11;;;;;;;42.67;18.90;;;;;;;1.36;77.72;95076.53;5086849;28;20451;-78
2023/12/10 06:01:36;;;;;;;39.70;18.70;;;;;;;1.09;77.71;95026.38;5084213;28;20127;-78
2023/12/10 06:04:02;;;;;;;41.33;18.83;;;;;;;1.58;78.01;95105.63;5091308;28;20036;-78
2023/12/10 06:06:27;;;;;;;40.75;19.02;;;;;;;1.30;77.83;95061.72;5094184;28;20190;-79
2023/12/10 06:08:53;;;;;;;40.83;18.45;;;;;;;1.59;77.85;95115.06;5074376;28;21992;-77
2023/12/10 06:11:18;;;;;;;43.40;19.83;;;;;;;1.65;77.68;95106.34;5098541;28;20649;-78
2023/12/10 06:13:44;;;;;;;41.17;19.63;;;;;;;1.42;77.83;95080.88;5097995;28;20143;-78
2023/12/10 06:16:09;;;;;;;43.13;20.33;;;;;;;1.63;77.85;95112.81;5093176;28;20072;-78
2023/12/10 06:18:35;;;;;;;40.38;18.05;;;;;;;0.87;78.10;94993.91;5080794;28;20050;-78
2023/12/10 06:21:00;;;;;;;43.22;19.70;;;;;;;1.22;77.59;95058.63;5074468;28;20051;-78
2023/12/10 06:23:26;;;;;;;42.50;20.13;;;;;;;1.53;78.58;95119.34;5093163;28;20032;-78
2023/12/10 06:25:51;;;;;;;42.58;18.80;;;;;;;1.52;78.37;95103.91;5094798;28;20035;-78
2023/12/10 06:28:17;;;;;;;44.75;20.23;;;;;;;1.01;78.36;95042.34;5107117;28;20040;-78
2023/12/10 06:30:42;;;;;;;37.28;19.25;;;;;;;1.43;79.04;95118.28;5074209;28;20064;-79
2023/12/10 06:33:08;;;;;;;37.47;17.92;;;;;;;1.38;79.20;95105.03;5098539;28;20040;-78
2023/12/10 06:35:33;;;;;;;46.40;20.27;;;;;;;1.42;78.99;95103.59;5115392;28;20038;-78
2023/12/10 06:37:59;;;;;;;42.83;19.52;;;;;;;0.71;78.65;94990.03;5109634;28;20034;-78
2023/12/10 06:40:25;;;;;;;44.25;20.83;;;;;;;1.09;78.39;95046.47;5095740;28;20027;-78
2023/12/10 06:42:50;;;;;;;45.10;20.08;;;;;;;1.65;78.40;95137.72;5114270;28;20726;-78
2023/12/10 06:45:16;;;;;;;40.42;20.60;;;;;;;1.20;79.07;95092.78;5114385;28;20036;-78
2023/12/10 06:47:42;;;;;;;42.00;20.30;;;;;;;1.47;78.97;95114.19;5092424;28;20043;-78
2023/12/10 06:50:08;;;;;;;62.92;26.15;;;;;;;1.41;79.11;95120.28;5079399;28;20033;-79
2023/12/10 06:52:33;;;;;;;67.70;31.08;;;;;;;1.59;79.17;95156.91;5092332;28;20123;-78
2023/12/10 06:54:59;;;;;;;62.40;28.10;;;;;;;1.29;78.90;95120.22;5075631;28;20565;-78
2023/12/10 06:57:24;;;;;;;54.83;24.00;;;;;;;1.09;80.15;95127.44;5093494;28;20067;-78
2023/12/10 06:59:50;;;;;;;57.15;25.17;;;;;;;1.07;80.15;95095.50;5089459;28;20409;-78
2023/12/10 07:02:16;;;;;;;50.28;22.45;;;;;;;1.30;80.05;95121.03;5110121;28;20034;-78
2023/12/10 07:04:41;;;;;;;47.88;21.73;;;;;;;1.41;79.68;95133.38;5076426;28;20036;-78
2023/12/10 07:07:07;;;;;;;44.78;21.55;;;;;;;1.44;79.65;95146.81;5109960;28;20046;-78
2023/12/10 07:09:32;;;;;;;44.38;20.45;;;;;;;1.45;79.64;95137.94;5087037;28;20050;-78
2023/12/10 07:11:58;;;;;;;44.45;21.05;;;;;;;1.46;79.74;95136.91;5072859;28;20036;-78
2023/12/10 07:14:23;;;;;;;49.00;21.70;;;;;;;0.89;79.35;95033.66;5084579;28;20036;-78
2023/12/10 07:16:49;;;;;;;45.92;20.73;;;;;;;1.66;79.41;95157.63;5113392;28;20032;-79
2023/12/10 07:19:14;;;;;;;45.00;20.45;;;;;;;1.69;79.49;95161.59;5104825;28;20410;-78
2023/12/10 07:21:40;;;;;;;42.90;20.42;;;;;;;1.49;79.12;95112.16;5072499;28;20028;-78
2023/12/10 07:24:05;;;;;;;42.78;20.40;;;;;;;1.70;79.36;95143.09;5092224;28;20036;-78
2023/12/10 07:26:31;;;;;;;43.13;18.00;;;;;;;1.54;79.55;95120.13;5091632;28;20068;-78
2023/12/10 07:28:57;;;;;;;41.80;19.58;;;;;;;1.80;79.37;95166.09;5073795;28;20043;-78
2023/12/10 07:31:22;;;;;;;44.38;20.60;;;;;;;1.81;79.04;95163.28;5092575;28;20513;-79
2023/12/10 07:33:48;;;;;;;42.33;19.98;;;;;;;1.80;79.36;95166.91;5086255;28;20478;-78
2023/12/10 07:36:14;;;;;;;41.13;19.90;;;;;;;1.75;79.01;95152.91;5092336;28;20051;-78
2023/12/10 07:38:40;;;;;;;42.33;20.13;;;;;;;1.63;79.21;95124.06;5090382;28;20119;-78
2023/12/10 07:41:05;;;;;;;53.38;22.60;;;;;;;1.77;79.47;95129.94;5091008;28;20582;-78
2023/12/10 07:43:31;;;;;;;42.45;20.48;;;;;;;1.63;79.34;95112.81;5071709;28;20048;-78
2023/12/10 07:45:57;;;;;;;47.00;21.15;;;;;;;1.80;79.38;95132.13;5105756;28;20437;-78
2023/12/10 07:48:22;;;;;;;47.97;20.35;;;;;;;2.21;79.24;95181.09;5105961;28;20035;-82
2023/12/10 07:50:48;;;;;;;40.08;17.77;;;;;;;2.17;78.76;95157.19;5089111;28;20070;-81
2023/12/10 07:53:15;;;;;;;37.40;17.95;;;;;;;2.34;78.39;95173.06;5104099;28;20104;-82
2023/12/10 07:55:41;;;;;;;36.92;17.35;;;;;;;1.75;77.82;95095.38;5108945;28;20151;-81
2023/12/10 07:58:07;;;;;;;41.50;18.98;;;;;;;2.14;77.97;95169.91;5102632;28;20141;-82
2023/12/10 08:00:32;;;;;;;42.33;18.25;;;;;;;2.13;77.81;95150.81;5108029;28;20031;-81
2023/12/10 08:02:58;;;;;;;42.42;19.17;;;;;;;2.28;77.89;95158.28;5109676;28;20136;-81
2023/12/10 08:05:24;;;;;;;41.42;19.17;;;;;;;2.52;77.34;95180.06;5109526;28;20584;-81
2023/12/10 08:07:50;;;;;;;42.67;20.58;;;;;;;2.22;77.02;95125.13;5130582;28;20065;-82
2023/12/10 08:10:17;;;;;;;40.40;19.92;;;;;;;2.55;75.66;95192.72;5126204;28;20036;-82
2023/12/10 08:12:42;;;;;;;43.00;20.45;;;;;;;2.53;75.80;95165.94;5127375;28;20047;-81
2023/12/10 08:15:09;;;;;;;43.22;19.52;;;;;;;2.39;75.42;95144.41;5112124;28;20103;-81
2023/12/10 08:17:34;;;;;;;38.03;19.40;;;;;;;2.60;75.14;95164.84;5132966;28;20037;-81
2023/12/10 08:20:00;;;;;;;41.20;18.35;;;;;;;2.61;74.96;95158.56;5106729;28;20056;-81
2023/12/10 08:22:25;;;;;;;42.85;20.27;;;;;;;2.67;75.34;95156.91;5093673;28;20021;-81
2023/12/10 08:24:51;;;;;;;45.22;20.23;;;;;;;2.51;74.88;95105.19;5090170;28;20064;-81
2023/12/10 08:27:17;;;;;;;43.92;22.27;;;;;;;2.87;74.54;95151.34;5121565;28;20039;-80
2023/12/10 08:29:42;;;;;;;45.15;20.80;;;;;;;3.17;73.86;95178.25;5106389;28;20045;-80
2023/12/10 08:32:08;;;;;;;38.42;19.20;;;;;;;3.08;73.47;95154.22;5091726;28;20028;-81
2023/12/10 08:34:33;;;;;;;36.13;17.40;;;;;;;3.18;72.78;95163.34;5093108;28;20040;-81
2023/12/10 08:36:59;;;;;;;33.55;16.92;;;;;;;3.25;72.62;95156.16;5093258;28;20063;-81
2023/12/10 08:39:24;;;;;;;33.15;16.40;;;;;;;3.07;71.81;95131.66;5097283;28;20023;-81
2023/12/10 08:41:50;;;;;;;35.65;16.70;;;;;;;3.13;71.92;95124.69;5107182;28;20099;-82
2023/12/10 08:44:16;;;;;;;30.77;15.75;;;;;;;2.85;71.78;95080.06;5099685;28;20024;-81
2023/12/10 08:46:41;;;;;;;38.28;17.92;;;;;;;3.39;71.87;95147.03;5133082;28;20045;-81
2023/12/10 08:49:08;;;;;;;40.90;18.33;;;;;;;3.06;72.44;95109.09;5096755;28;20595;-81
2023/12/10 08:51:33;;;;;;;39.50;17.92;;;;;;;3.16;72.28;95112.97;5102726;28;20027;-81
2023/12/10 08:54:02;;;;;;;36.22;17.80;;;;;;;3.39;72.09;95123.44;5117611;28;20042;-81
2023/12/10 08:56:27;;;;;;;34.83;17.40;;;;;;;3.54;72.15;95147.38;5126760;28;20060;-82
2023/12/10 08:58:53;;;;;;;45.22;20.02;;;;;;;3.35;71.73;95106.59;5076380;28;20127;-78
2023/12/10 09:01:18;;;;;;;39.58;20.20;;;;;;;3.59;72.18;95136.97;5090845;28;20036;-78
2023/12/10 09:03:45;;;;;;;38.42;19.08;;;;;;;3.58;71.34;95139.84;5110849;28;20076;-78
2023/12/10 09:06:12;;;;;;;41.70;20.75;;;;;;;3.18;71.89;95137.94;5107570;28;20031;-79
2023/12/10 09:08:38;;;;;;;42.10;20.08;;;;;;;3.16;71.47;95115.59;5105667;28;20138;-78
2023/12/10 09:11:05;;;;;;;41.40;20.38;;;;;;;3.32;71.59;95104.41;5089943;28;20043;-78
2023/12/10 09:13:31;;;;;;;41.88;20.58;;;;;;;3.41;71.15;95095.97;5068294;28;20061;-79
2023/12/10 09:15:58;;;;;;;42.45;20.38;;;;;;;3.22;71.14;95051.78;5086356;28;20410;-78
2023/12/10 09:18:24;;;;;;;45.72;22.38;;;;;;;3.65;70.74;95109.84;5071944;28;20032;-78
2023/12/10 09:20:50;;;;;;;49.88;21.65;;;;;;;3.74;71.25;95105.00;5071876;28;20039;-78
2023/12/10 09:23:15;;;;;;;47.15;21.85;;;;;;;3.76;70.99;95098.50;5090109;28;20024;-79
2023/12/10 09:25:41;;;;;;;44.47;20.05;;;;;;;3.73;70.21;95091.13;5071734;28;20035;-78
2023/12/10 09:28:06;;;;;;;48.10;20.17;;;;;;;3.77;70.38;95115.84;5072150;28;20047;-78
2023/12/10 09:30:32;;;;;;;43.60;20.10;;;;;;;3.70;70.38;95101.28;5100304;28;20112;-78
2023/12/10 09:32:58;;;;;;;43.92;22.15;;;;;;;3.69;69.91;95108.34;5110367;28;20027;-78
2023/12/10 09:35:23;;;;;;;67.97;23.33;;;;;;;3.51;69.98;95031.69;5092070;28;20043;-78
2023/12/10 09:37:49;;;;;;;49.58;22.90;;;;;;;3.92;69.72;95085.69;5088552;28;20498;-78
2023/12/10 09:40:14;;;;;;;51.28;22.20;;;;;;;3.39;68.70;94997.63;5088305;28;20100;-78
2023/12/10 09:42:40;;;;;;;44.60;20.85;;;;;;;3.83;70.07;95091.31;5093883;28;20102;-78
2023/12/10 09:45:07;;;;;;;46.63;21.30;;;;;;;3.53;69.67;95022.53;5091965;28;20028;-79
2023/12/10 09:47:34;;;;;;;48.25;21.55;;;;;;;3.99;69.24;95094.22;5102909;28;20043;-78
2023/12/10 09:50:02;;;;;;;44.17;21.13;;;;;;;4.06;69.27;95089.63;5070454;28;20086;-78
2023/12/10 09:52:27;;;;;;;49.22;19.98;;;;;;;4.12;69.51;95073.72;5110108;28;20028;-79
2023/12/10 09:54:53;;;;;;;42.50;19.13;;;;;;;3.90;68.86;95028.19;5105539;28;20133;-78
2023/12/10 09:57:20;;;;;;;45.20;19.80;;;;;;;4.36;68.53;95081.47;5085338;28;20027;-79
2023/12/10 09:59:47;;;;;;;51.55;21.00;;;;;;;3.64;68.79;95023.53;5068298;28;20031;-78
2023/12/10 10:02:12;;;;;;;40.10;20.00;;;;;;;3.76;69.68;95045.25;5102093;28;20057;-78
2023/12/10 10:04:41;;;;;;;44.70;18.95;;;;;;;4.07;69.61;95076.28;5099768;28;20039;-78
2023/12/10 10:07:07;;;;;;;39.28;19.20;;;;;;;3.46;69.18;94964.19;5086357;28;20325;-81
2023/12/10 10:09:34;;;;;;;41.42;18.95;;;;;;;3.88;69.37;94977.81;5113251;28;20067;-81
2023/12/10 10:12:00;;;;;;;38.13;18.90;;;;;;;5.02;69.59;95076.25;5114258;28;20032;-81
2023/12/10 10:14:25;;;;;;;36.10;18.67;;;;;;;5.50;67.76;95060.84;5113138;28;20197;-81
2023/12/10 10:16:51;;;;;;;34.75;18.33;;;;;;;5.63;66.07;95034.19;5107833;28;20043;-81
2023/12/10 10:19:16;;;;;;;35.70;17.10;;;;;;;6.60;64.52;95071.00;5094252;28;20056;-81
2023/12/10 10:21:42;;;;;;;38.42;19.60;;;;;;;7.38;61.53;95063.38;5132938;28;20061;-80
2023/12/10 10:24:08;;;;;;;36.50;19.27;;;;;;;8.21;59.46;95075.56;5113043;28;20089;-81
2023/12/10 10:26:35;;;;;;;43.00;20.95;;;;;;;8.41;56.25;95004.28;5087455;28;20138;-82
2023/12/10 10:29:06;;;;;;;35.47;18.58;;;;;;;9.61;53.84;95075.06;5094038;28;20020;-81
2023/12/10 10:31:35;;;;;;;39.97;20.08;;;;;;;10.25;51.97;95069.78;5113005;28;20032;-81
2023/12/10 10:34:03;;;;;;;32.30;17.50;;;;;;;10.68;50.32;95052.25;5101356;28;20036;-81
2023/12/10 10:36:29;;;;;;;42.78;17.95;;;;;;;10.98;47.62;95045.94;5110522;28;20020;-81
2023/12/10 10:38:56;;;;;;;32.63;18.13;;;;;;;11.17;47.07;95024.78;5099363;28;20069;-81
2023/12/10 10:41:25;;;;;;;32.55;17.42;;;;;;;11.34;46.53;95025.16;5127437;28;20043;-81
2023/12/10 10:43:51;;;;;;;36.03;19.83;;;;;;;10.99;46.50;94983.81;5104176;28;20024;-81
2023/12/10 10:46:21;;;;;;;32.65;18.58;;;;;;;11.15;46.61;95009.13;5091216;28;20127;-81
2023/12/10 10:48:53;;;;;;;32.03;19.50;;;;;;;11.34;46.79;95056.22;5109979;28;20058;-81
2023/12/10 10:51:25;;;;;;;35.58;17.95;;;;;;;11.22;46.21;95049.41;5091542;28;20035;-81
2023/12/10 10:53:56;;;;;;;32.25;18.35;;;;;;;10.54;47.34;95029.28;5109974;28;20427;-81
2023/12/10 10:56:23;;;;;;;33.83;17.45;;;;;;;10.08;49.19;95048.09;5092975;28;20141;-81
2023/12/10 10:58:48;;;;;;;33.40;18.00;;;;;;;10.06;48.87;95039.66;5103116;28;20020;-81
2023/12/10 11:01:37;;;;;;;33.65;18.30;;;;;;;9.85;50.29;95036.28;5092461;28;20048;-81
2023/12/10 11:04:03;;;;;;;34.63;17.85;;;;;;;9.23;50.36;94973.25;5126543;28;20106;-80
2023/12/10 11:06:29;;;;;;;36.30;18.80;;;;;;;9.18;50.74;94995.22;5101257;28;20029;-81
2023/12/10 11:08:57;;;;;;;33.75;16.73;;;;;;;9.11;51.60;95023.03;5110932;28;20027;-80
2023/12/10 11:11:25;;;;;;;34.72;15.50;;;;;;;8.60;52.54;95017.78;5120027;28;20043;-80
2023/12/10 11:13:53;;;;;;;31.00;16.65;;;;;;;8.58;52.87;94996.09;5080403;28;20083;-81
2023/12/10 11:16:19;;;;;;;31.80;17.90;;;;;;;8.18;53.85;94977.53;5109642;28;20055;-81
2023/12/10 11:18:58;;;;;;;35.83;19.15;;;;;;;8.09;54.23;95001.84;5093032;28;20066;-80